Chachapoyas, Peru
Current Conditions -  °F | °C
As of 5:00 AM on Sunday 21 Dec 2014 (Local Time) from SPJR Reporting Station
Clear Clear  
Wind Chill: 43°   Ceiling: Unl
Heat Index: 43°   Visibility: 6mi
Dew Point: 41°   Wind: 0mph
Humidity: 93%   Direction: NA
Pressure: 30.33"   Gusts: NA
Location:  6.23°S, 77.87°W
Report Text: SPJR 211000Z 00000KT CAVOK 06/05 Q1027 RMK PP000
Loading
Personal Weather Stations






























Interactive Weather Map New forecast layout! Learn more

10-Day Weather Forecast

Advertisements
Track Severe Weather on mobile